Time;durP1;ratioP1;P1;durP2;ratioP2;P2;SDS_P1;SDS_P2;PMS_P1;PMS_P2;Temp;Humidity;BMP_temperature;BMP_pressure;BME280_temperature;BME280_humidity;BME280_pressure;Samples;Min_cycle;Max_cycle;Signal;HPM_P1;HPM_P2
2023/09/06 00:00:29;;;;;;;7.78;4.40;;;;;;;15.79;85.71;101135.19;5086513;28;20115;-59
2023/09/06 00:02:58;;;;;;;8.60;4.63;;;;;;;15.74;86.69;101140.50;5086491;28;20028;-59
2023/09/06 00:05:25;;;;;;;6.38;3.70;;;;;;;15.71;86.25;101137.94;5086360;28;20040;-59
2023/09/06 00:07:50;;;;;;;5.78;3.92;;;;;;;15.74;85.66;101141.38;5086250;28;20088;-60
2023/09/06 00:10:16;;;;;;;4.78;3.78;;;;;;;15.73;86.04;101144.88;5086579;28;20056;-60
2023/09/06 00:12:42;;;;;;;13.05;5.32;;;;;;;15.73;87.04;101159.75;5085906;28;20020;-61
2023/09/06 00:15:09;;;;;;;7.53;4.45;;;;;;;15.73;87.09;101157.13;5085870;28;20028;-62
2023/09/06 00:17:37;;;;;;;7.35;4.55;;;;;;;15.74;87.37;101150.97;5085693;28;20017;-60
2023/09/06 00:20:16;;;;;;;6.10;4.10;;;;;;;15.74;86.52;101157.09;5085979;28;20025;-61
2023/09/06 00:22:41;;;;;;;5.13;3.45;;;;;;;15.72;86.71;101158.00;5085826;28;20051;-60
2023/09/06 00:25:08;;;;;;;8.20;4.78;;;;;;;15.73;86.24;101147.50;5086255;28;20024;-61
2023/09/06 00:27:33;;;;;;;4.45;3.53;;;;;;;15.73;85.85;101144.88;5085887;28;20040;-60
2023/09/06 00:29:58;;;;;;;5.25;3.92;;;;;;;15.73;85.72;101149.28;5085036;28;20028;-60
2023/09/06 00:32:24;;;;;;;7.72;4.40;;;;;;;15.69;85.98;101137.09;5085990;28;20353;-60
2023/09/06 00:34:49;;;;;;;5.68;4.28;;;;;;;15.71;86.22;101140.56;5085886;28;20021;-61
2023/09/06 00:37:14;;;;;;;6.30;4.60;;;;;;;15.70;86.82;101154.56;5085541;28;20460;-59
2023/09/06 00:39:40;;;;;;;13.65;4.57;;;;;;;15.72;86.19;101155.38;5085358;28;20028;-61
2023/09/06 00:42:05;;;;;;;11.10;4.72;;;;;;;15.71;85.85;101151.03;5085848;28;20063;-61
2023/09/06 00:44:30;;;;;;;5.85;4.32;;;;;;;15.70;86.24;101151.94;5085512;28;20035;-60
2023/09/06 00:46:56;;;;;;;7.93;4.60;;;;;;;15.65;86.87;101149.41;5086064;28;20271;-61
2023/09/06 00:49:21;;;;;;;5.72;4.53;;;;;;;15.60;87.64;101153.84;5085398;28;20032;-60
2023/09/06 00:51:46;;;;;;;6.10;4.63;;;;;;;15.60;87.80;101159.97;5085452;28;20525;-61
2023/09/06 00:54:12;;;;;;;7.13;4.35;;;;;;;15.62;87.86;101162.56;5085494;28;20031;-59
2023/09/06 00:56:39;;;;;;;12.13;4.13;;;;;;;15.61;88.28;101156.44;5085441;28;20031;-59
2023/09/06 00:59:04;;;;;;;8.05;4.28;;;;;;;15.63;88.88;101161.66;5085226;28;20050;-59
2023/09/06 01:01:33;;;;;;;4.57;3.90;;;;;;;15.66;88.67;101168.56;5085584;28;20024;-60
2023/09/06 01:03:59;;;;;;;3.80;3.40;;;;;;;15.67;88.82;101172.94;5084987;28;20029;-59
2023/09/06 01:06:28;;;;;;;10.45;4.47;;;;;;;15.66;88.55;101163.34;5084996;28;20115;-59
2023/09/06 01:09:05;;;;;;;3.83;3.25;;;;;;;15.68;88.64;101170.28;5084909;28;20031;-59
2023/09/06 01:11:32;;;;;;;8.65;3.92;;;;;;;15.68;88.45;101170.28;5085129;28;20021;-60
2023/09/06 01:13:59;;;;;;;10.82;4.38;;;;;;;15.68;88.75;101166.81;5084997;28;20024;-60
2023/09/06 01:16:32;;;;;;;6.70;4.60;;;;;;;15.67;89.15;101172.94;5085099;28;20024;-61
2023/09/06 01:18:59;;;;;;;9.48;4.63;;;;;;;15.68;88.00;101174.66;5084981;28;20058;-59
2023/09/06 01:21:27;;;;;;;5.47;4.18;;;;;;;15.67;87.61;101180.78;5085239;28;20051;-61
2023/09/06 01:23:54;;;;;;;5.80;4.03;;;;;;;15.61;87.23;101173.88;5084558;28;20044;-59
2023/09/06 01:26:20;;;;;;;7.43;3.85;;;;;;;15.59;87.04;101176.53;5085044;28;20020;-59
2023/09/06 01:28:45;;;;;;;6.25;3.65;;;;;;;15.57;86.87;101170.50;5084702;28;20458;-60
2023/09/06 01:31:10;;;;;;;6.68;4.10;;;;;;;15.55;86.74;101166.16;5084687;28;20032;-59
2023/09/06 01:33:36;;;;;;;11.32;4.75;;;;;;;15.53;86.81;101171.41;5084713;28;20370;-59
2023/09/06 01:36:01;;;;;;;6.10;3.95;;;;;;;15.54;86.47;101181.00;5084847;28;20473;-59
2023/09/06 01:38:27;;;;;;;7.78;4.10;;;;;;;15.55;86.87;101179.22;5084453;28;20024;-60
2023/09/06 01:40:53;;;;;;;5.30;4.13;;;;;;;15.55;86.84;101179.22;5084498;28;20476;-60
2023/09/06 01:43:18;;;;;;;4.85;4.35;;;;;;;15.44;87.12;101167.22;5084342;28;20074;-59
2023/09/06 01:45:54;;;;;;;9.10;4.57;;;;;;;15.60;86.87;101193.13;5084567;28;20029;-60
2023/09/06 01:48:21;;;;;;;7.03;4.30;;;;;;;15.61;86.75;101195.69;5084612;28;20044;-60
2023/09/06 01:50:47;;;;;;;5.97;4.25;;;;;;;15.63;86.41;101197.41;5084586;28;20117;-61
2023/09/06 01:53:16;;;;;;;10.35;4.75;;;;;;;15.63;86.91;101192.19;5084237;28;20484;-60
2023/09/06 01:55:42;;;;;;;12.98;5.22;;;;;;;15.58;86.72;101195.75;5084423;28;20033;-60
2023/09/06 01:58:12;;;;;;;8.88;4.68;;;;;;;15.64;86.65;101207.03;5084112;28;20036;-59
2023/09/06 02:00:37;;;;;;;8.45;3.92;;;;;;;15.65;86.57;101206.13;5083900;28;20032;-60
2023/09/06 02:03:05;;;;;;;7.47;3.83;;;;;;;15.63;86.79;101207.88;5084060;28;20090;-60
2023/09/06 02:05:31;;;;;;;6.93;3.85;;;;;;;15.65;86.88;101206.13;5084379;28;20052;-60
2023/09/06 02:07:57;;;;;;;9.77;3.65;;;;;;;15.69;86.97;101211.28;5084183;28;20031;-61
2023/09/06 02:10:22;;;;;;;12.60;4.68;;;;;;;15.71;87.03;101219.97;5084327;28;20035;-60
2023/09/06 02:12:47;;;;;;;9.35;4.53;;;;;;;15.79;86.86;101217.22;5083646;28;20073;-59
2023/09/06 02:15:14;;;;;;;11.50;3.85;;;;;;;15.81;86.63;101211.97;5083093;28;20024;-59
2023/09/06 02:17:42;;;;;;;5.90;4.50;;;;;;;15.83;86.62;101216.25;5083903;28;20027;-60
2023/09/06 02:20:27;;;;;;;15.80;4.00;;;;;;;15.86;87.14;101218.81;5084015;28;20035;-60
2023/09/06 02:22:58;;;;;;;7.03;3.80;;;;;;;15.91;86.46;101223.97;5083870;28;20028;-61
2023/09/06 02:25:29;;;;;;;4.85;3.42;;;;;;;15.94;86.75;101221.31;5082862;28;20012;-59
2023/09/06 02:27:56;;;;;;;6.63;3.75;;;;;;;15.96;86.44;101229.13;5084028;28;20127;-60
2023/09/06 02:30:21;;;;;;;6.00;3.95;;;;;;;15.99;86.35;101231.72;5083847;28;20059;-60
2023/09/06 02:32:48;;;;;;;12.57;4.78;;;;;;;16.02;86.17;101226.47;5084045;28;20377;-61
2023/09/06 02:35:13;;;;;;;8.55;4.05;;;;;;;16.05;86.18;101229.03;5082334;28;20070;-61
2023/09/06 02:37:39;;;;;;;5.00;4.05;;;;;;;16.08;86.24;101220.25;5083658;28;20025;-60
2023/09/06 02:40:16;;;;;;;4.47;3.92;;;;;;;16.09;86.32;101230.69;5083767;28;20024;-60
2023/09/06 02:42:41;;;;;;;6.47;3.90;;;;;;;16.11;86.24;101238.50;5083905;28;20023;-61
2023/09/06 02:45:11;;;;;;;5.07;3.90;;;;;;;16.14;86.11;101242.81;5083892;28;20044;-60
2023/09/06 02:47:50;;;;;;;5.40;3.67;;;;;;;16.14;85.98;101232.34;5083956;28;20025;-61
2023/09/06 02:50:17;;;;;;;7.88;3.58;;;;;;;16.15;85.98;101234.94;5083644;28;20031;-60
2023/09/06 02:52:44;;;;;;;5.20;4.05;;;;;;;16.17;85.83;101238.41;5083687;28;20055;-60
2023/09/06 02:55:13;;;;;;;10.73;3.58;;;;;;;16.18;86.05;101244.50;5083824;28;20103;-60
2023/09/06 02:57:39;;;;;;;8.77;4.57;;;;;;;16.19;86.12;101248.84;5081837;28;20109;-60
2023/09/06 03:00:18;;;;;;;5.07;3.83;;;;;;;16.21;85.83;101245.28;5083652;28;20025;-61
2023/09/06 03:02:44;;;;;;;3.80;3.45;;;;;;;16.28;86.13;101240.81;5083735;28;20222;-61
2023/09/06 03:05:09;;;;;;;5.45;3.50;;;;;;;16.32;86.09;101241.63;5083476;28;20028;-60
2023/09/06 03:07:34;;;;;;;4.10;3.05;;;;;;;16.34;85.80;101256.41;5083427;28;20031;-61
2023/09/06 03:10:00;;;;;;;6.13;4.10;;;;;;;16.34;86.10;101255.56;5083738;28;20099;-61
2023/09/06 03:12:25;;;;;;;3.85;3.22;;;;;;;16.34;85.74;101260.81;5085247;28;20070;-60
2023/09/06 03:14:53;;;;;;;5.22;4.07;;;;;;;16.39;85.82;101258.09;5087371;28;20066;-60
2023/09/06 03:17:22;;;;;;;5.78;4.28;;;;;;;16.45;85.96;101263.22;5087512;28;20028;-59
2023/09/06 03:19:53;;;;;;;9.13;3.53;;;;;;;16.48;85.54;101266.63;5087479;28;20028;-61
2023/09/06 03:22:21;;;;;;;6.67;4.53;;;;;;;16.52;85.47;101271.84;5086089;28;20033;-57
2023/09/06 03:24:48;;;;;;;8.18;3.78;;;;;;;16.50;85.61;101261.38;5086907;28;20055;-60
2023/09/06 03:27:16;;;;;;;7.47;3.72;;;;;;;16.55;85.74;101277.03;5086841;28;20037;-60
2023/09/06 03:29:43;;;;;;;9.60;4.22;;;;;;;16.56;85.71;101271.75;5086879;28;20042;-59
2023/09/06 03:32:09;;;;;;;6.72;3.47;;;;;;;16.60;85.84;101270.78;5086993;28;20099;-60
2023/09/06 03:34:36;;;;;;;2.90;2.67;;;;;;;16.63;85.54;101274.25;5086714;28;20017;-60
2023/09/06 03:37:04;;;;;;;4.25;3.85;;;;;;;16.65;85.54;101275.06;5086731;28;20032;-60
2023/09/06 03:39:37;;;;;;;5.15;3.80;;;;;;;16.65;85.31;101268.06;5086514;28;20052;-60
2023/09/06 03:42:08;;;;;;;4.63;3.05;;;;;;;16.70;85.38;101279.31;5086928;28;20052;-59
2023/09/06 03:44:37;;;;;;;5.43;3.60;;;;;;;16.70;85.29;101266.22;5086884;28;20032;-60
2023/09/06 03:47:13;;;;;;;6.00;3.97;;;;;;;16.75;85.09;101280.97;5086764;28;20028;-59
2023/09/06 03:49:39;;;;;;;15.80;4.72;;;;;;;16.74;85.23;101280.13;5086637;28;20055;-60
2023/09/06 03:52:04;;;;;;;5.38;4.18;;;;;;;16.76;85.07;101278.31;5086980;28;20020;-61
2023/09/06 03:54:32;;;;;;;3.70;2.90;;;;;;;16.74;84.94;101288.00;5086388;28;20074;-59
2023/09/06 03:56:57;;;;;;;5.78;3.60;;;;;;;16.70;84.84;101274.09;5086272;28;20088;-59
2023/09/06 03:59:24;;;;;;;6.65;4.00;;;;;;;16.74;85.21;101290.63;5086711;28;20020;-59
2023/09/06 04:01:49;;;;;;;8.52;3.15;;;;;;;16.73;84.78;101291.50;5086289;28;20487;-60
2023/09/06 04:04:14;;;;;;;4.88;3.88;;;;;;;16.72;85.17;101289.78;5086246;28;20503;-58
2023/09/06 04:06:43;;;;;;;6.72;3.28;;;;;;;16.73;84.84;101289.75;5085228;28;20020;-59
2023/09/06 04:09:12;;;;;;;4.68;4.00;;;;;;;16.75;85.18;101281.84;5085938;28;20016;-59
2023/09/06 04:11:38;;;;;;;7.05;4.05;;;;;;;16.77;84.75;101295.81;5086669;28;20040;-60
2023/09/06 04:14:03;;;;;;;4.72;3.90;;;;;;;16.75;84.68;101289.72;5086235;28;20078;-59
2023/09/06 04:16:30;;;;;;;6.60;4.13;;;;;;;16.74;84.95;101293.25;5086425;28;20468;-61
2023/09/06 04:18:56;;;;;;;7.68;3.95;;;;;;;16.73;84.89;101299.38;5086636;28;20024;-60
2023/09/06 04:21:22;;;;;;;4.45;3.85;;;;;;;16.73;84.82;101315.97;5086387;28;20024;-60
2023/09/06 04:23:48;;;;;;;7.90;4.30;;;;;;;16.73;85.08;101307.22;5085670;28;20095;-60
2023/09/06 04:26:14;;;;;;;6.18;4.05;;;;;;;16.67;84.94;101303.00;5085046;28;20031;-60
2023/09/06 04:28:40;;;;;;;4.70;3.60;;;;;;;16.65;85.10;101317.00;5086046;28;20045;-60
2023/09/06 04:31:05;;;;;;;4.70;3.63;;;;;;;16.62;85.39;101324.91;5086384;28;20123;-61
2023/09/06 04:33:30;;;;;;;6.68;4.30;;;;;;;16.57;85.44;101322.38;5086308;28;20016;-60
2023/09/06 04:35:57;;;;;;;7.18;5.05;;;;;;;16.57;85.78;101331.13;5085879;28;20032;-60
2023/09/06 04:38:25;;;;;;;8.57;3.88;;;;;;;16.55;85.90;101326.81;5085760;28;20017;-60
2023/09/06 04:40:51;;;;;;;6.85;4.85;;;;;;;16.56;85.95;101326.78;5086358;28;20047;-61
2023/09/06 04:43:18;;;;;;;10.32;4.38;;;;;;;16.61;86.04;101339.81;5086341;28;20028;-60
2023/09/06 04:45:43;;;;;;;11.93;4.97;;;;;;;16.64;85.94;101338.88;5085972;28;20032;-59
2023/09/06 04:48:10;;;;;;;6.18;4.65;;;;;;;16.65;85.66;101340.59;5086113;28;20017;-60
2023/09/06 04:50:40;;;;;;;7.25;4.82;;;;;;;16.62;86.01;101341.53;5086117;28;20475;-59
2023/09/06 04:53:07;;;;;;;6.07;4.43;;;;;;;16.62;85.74;101343.28;5085845;28;20031;-59
2023/09/06 04:55:35;;;;;;;6.45;4.18;;;;;;;16.55;86.04;101332.91;5085866;28;20040;-60
2023/09/06 04:58:04;;;;;;;7.20;4.30;;;;;;;16.59;86.05;101352.94;5085716;28;20020;-61
2023/09/06 05:00:36;;;;;;;10.48;4.88;;;;;;;16.62;85.79;101353.75;5085769;28;20039;-59
2023/09/06 05:03:03;;;;;;;7.57;4.88;;;;;;;16.62;85.85;101354.63;5085954;28;20043;-60
2023/09/06 05:05:29;;;;;;;6.05;4.38;;;;;;;16.59;86.01;101360.81;5085740;28;20098;-61
2023/09/06 05:07:54;;;;;;;6.63;5.18;;;;;;;16.56;85.92;101360.00;5085653;28;20088;-60
2023/09/06 05:10:19;;;;;;;7.20;4.63;;;;;;;16.54;86.35;101352.16;5085678;28;20058;-60
2023/09/06 05:12:46;;;;;;;7.00;4.25;;;;;;;16.47;86.37;101356.63;5085509;28;20031;-60
2023/09/06 05:15:12;;;;;;;6.88;4.30;;;;;;;16.49;86.43;101364.47;5085122;28;20029;-61
2023/09/06 05:17:39;;;;;;;5.95;3.90;;;;;;;16.48;86.53;101366.22;5085515;28;20028;-59
2023/09/06 05:20:33;;;;;;;10.07;4.50;;;;;;;16.45;86.70;101366.28;5085126;28;20480;-59
2023/09/06 05:23:01;;;;;;;10.25;5.15;;;;;;;16.44;86.84;101369.81;5085094;28;20016;-59
2023/09/06 05:25:26;;;;;;;6.75;4.20;;;;;;;16.41;87.08;101375.09;5085381;28;20024;-60
2023/09/06 05:27:57;;;;;;;5.32;3.42;;;;;;;16.40;87.34;101378.63;5084880;28;20048;-59
2023/09/06 05:30:22;;;;;;;12.52;4.05;;;;;;;16.35;87.40;101369.97;5085299;28;20025;-61
2023/09/06 05:32:48;;;;;;;4.88;3.08;;;;;;;16.40;87.66;101378.63;5085135;28;20095;-60
2023/09/06 05:35:13;;;;;;;4.82;3.58;;;;;;;16.40;87.52;101388.22;5084275;28;20074;-60
2023/09/06 05:37:39;;;;;;;5.57;4.18;;;;;;;16.40;87.95;101396.97;5084858;28;20024;-61
2023/09/06 05:40:06;;;;;;;10.13;4.30;;;;;;;16.34;87.75;101394.44;5085105;28;20036;-60
2023/09/06 05:42:32;;;;;;;6.47;4.28;;;;;;;16.29;88.03;101391.03;5084871;28;20025;-60
2023/09/06 05:44:58;;;;;;;5.00;3.60;;;;;;;16.24;88.09;101396.34;5084826;28;20025;-59
2023/09/06 05:47:23;;;;;;;5.57;3.42;;;;;;;16.16;88.49;101393.84;5084890;28;20022;-61
2023/09/06 05:49:52;;;;;;;5.07;4.05;;;;;;;16.09;88.69;101403.56;5084580;28;20024;-60
2023/09/06 05:52:17;;;;;;;4.55;3.67;;;;;;;15.97;88.70;101393.25;5084653;28;20046;-60
2023/09/06 05:54:44;;;;;;;5.70;3.53;;;;;;;15.92;89.32;101400.31;5084575;28;20040;-61
2023/09/06 05:57:09;;;;;;;5.18;3.35;;;;;;;15.88;89.59;101401.25;5084630;28;20028;-61
2023/09/06 05:59:36;;;;;;;4.13;3.30;;;;;;;15.83;89.71;101399.53;5084595;28;20050;-61
2023/09/06 06:02:01;;;;;;;7.60;4.35;;;;;;;15.81;90.25;101405.69;5084599;28;20388;-59
2023/09/06 06:04:26;;;;;;;4.82;3.35;;;;;;;15.85;90.26;101403.00;5084499;28;20027;-60
2023/09/06 06:06:52;;;;;;;9.40;2.92;;;;;;;15.90;90.26;101402.94;5084773;28;20029;-60
2023/09/06 06:09:21;;;;;;;4.72;2.75;;;;;;;15.93;90.01;101408.13;5084367;28;20028;-60
2023/09/06 06:11:47;;;;;;;4.50;1.92;;;;;;;15.91;89.73;101409.06;5084597;28;20107;-59
2023/09/06 06:14:12;;;;;;;3.88;2.35;;;;;;;15.90;90.03;101418.66;5084673;28;20089;-61
2023/09/06 06:16:38;;;;;;;6.05;2.80;;;;;;;15.85;89.94;101405.63;5084421;28;20052;-62
2023/09/06 06:19:03;;;;;;;2.45;1.92;;;;;;;15.84;90.03;101405.66;5084078;28;20024;-60
2023/09/06 06:21:31;;;;;;;6.65;2.45;;;;;;;15.83;90.00;101412.63;5084166;28;20051;-61
2023/09/06 06:23:57;;;;;;;1.92;1.73;;;;;;;15.83;90.28;101417.88;5084171;28;20082;-60
2023/09/06 06:26:22;;;;;;;5.95;2.90;;;;;;;15.81;90.41;101409.19;5084313;28;20419;-60
2023/09/06 06:28:50;;;;;;;3.55;2.67;;;;;;;15.73;90.20;101417.13;5084355;28;20029;-61
2023/09/06 06:31:16;;;;;;;2.47;1.92;;;;;;;15.68;90.74;101407.63;5084629;28;20039;-62
2023/09/06 06:33:43;;;;;;;0.77;0.77;;;;;;;15.72;90.81;101417.16;5084306;28;20021;-62
2023/09/06 06:36:08;;;;;;;5.68;2.90;;;;;;;15.73;90.65;101421.50;5084485;28;20032;-62
2023/09/06 06:38:34;;;;;;;2.22;1.67;;;;;;;15.70;90.50;101416.31;5084205;28;20028;-62
2023/09/06 06:40:59;;;;;;;2.92;2.25;;;;;;;15.68;90.20;101418.97;5084433;28;20468;-60
2023/09/06 06:43:26;;;;;;;2.28;1.88;;;;;;;15.66;90.71;101425.09;5084352;28;20036;-61
2023/09/06 06:45:53;;;;;;;4.35;2.22;;;;;;;15.68;90.43;101428.56;5085749;28;20016;-62
2023/09/06 06:48:19;;;;;;;2.00;1.70;;;;;;;15.61;90.37;101423.41;5090799;28;20031;-61
2023/09/06 06:50:44;;;;;;;5.32;2.17;;;;;;;15.61;90.15;101433.88;5090772;28;20024;-61
2023/09/06 06:53:10;;;;;;;4.82;1.50;;;;;;;15.58;90.21;101419.97;5090770;28;20017;-62
2023/09/06 06:55:37;;;;;;;3.10;2.45;;;;;;;15.53;90.27;101425.25;5090788;28;20380;-61
2023/09/06 06:58:03;;;;;;;1.90;1.35;;;;;;;15.64;89.83;101432.97;5090759;28;20099;-61
2023/09/06 07:00:31;;;;;;;3.22;2.63;;;;;;;15.58;89.96;101438.28;5090584;28;20028;-61
2023/09/06 07:02:57;;;;;;;1.80;1.27;;;;;;;15.53;89.68;101434.88;5090745;28;20076;-61
2023/09/06 07:05:23;;;;;;;2.90;1.42;;;;;;;15.61;88.76;101459.19;5090603;28;20032;-61
2023/09/06 07:07:48;;;;;;;4.22;2.05;;;;;;;15.47;89.22;101465.47;5090394;28;20024;-62
2023/09/06 07:10:15;;;;;;;0.55;0.45;;;;;;;15.22;89.24;101421.25;5099452;22;20027;-65
2023/09/06 07:12:40;;;;;;;1.73;1.40;;;;;;;15.46;88.71;101465.47;5049042;28;20060;-65
2023/09/06 07:15:06;;;;;;;3.13;2.03;;;;;;;15.31;89.40;101467.38;5062896;22;20095;-59
2023/09/06 07:17:32;;;;;;;4.10;2.33;;;;;;;15.27;89.54;101470.06;5070559;28;20033;-61
2023/09/06 07:19:58;;;;;;;2.78;1.75;;;;;;;15.30;90.08;101468.28;5070396;28;20090;-60
2023/09/06 07:22:24;;;;;;;1.80;1.70;;;;;;;15.36;90.27;101476.06;5070498;28;20036;-60
2023/09/06 07:24:50;;;;;;;1.88;1.45;;;;;;;15.40;90.24;101476.03;5052406;28;20028;-60
2023/09/06 07:27:15;;;;;;;1.20;0.98;;;;;;;15.52;90.28;101486.34;5070372;28;20050;-60
2023/09/06 07:29:40;;;;;;;2.80;1.98;;;;;;;15.59;88.91;101489.75;5070556;28;20464;-60
2023/09/06 07:32:06;;;;;;;1.27;1.17;;;;;;;15.51;88.29;101483.75;5070454;28;20034;-59
2023/09/06 07:34:32;;;;;;;3.92;1.95;;;;;;;15.45;88.43;101492.50;5070475;28;20025;-61
2023/09/06 07:36:57;;;;;;;1.55;1.30;;;;;;;15.37;89.01;101500.44;5070653;28;20059;-60
2023/09/06 07:39:23;;;;;;;3.25;1.75;;;;;;;15.38;89.29;101504.81;5070213;28;20539;-61
2023/09/06 07:41:52;;;;;;;3.58;1.95;;;;;;;15.41;88.58;101510.03;5070145;28;20020;-60
2023/09/06 07:44:18;;;;;;;1.88;1.70;;;;;;;15.37;88.77;101526.63;5070245;28;20050;-60
2023/09/06 07:46:48;;;;;;;3.22;1.50;;;;;;;15.33;89.27;101523.19;5070723;28;20032;-61
2023/09/06 07:49:14;;;;;;;2.45;1.95;;;;;;;15.38;89.28;101511.78;5069373;28;20028;-61
2023/09/06 07:51:40;;;;;;;2.33;1.77;;;;;;;15.45;89.32;101527.41;5070598;28;20029;-61
2023/09/06 07:54:05;;;;;;;3.53;1.85;;;;;;;15.49;89.00;101536.09;5070800;28;20020;-60
2023/09/06 07:56:30;;;;;;;3.97;2.15;;;;;;;15.47;89.15;101541.34;5071116;28;20044;-59
2023/09/06 07:58:56;;;;;;;2.05;1.73;;;;;;;15.46;89.18;101538.75;5090069;22;20216;-65
2023/09/06 08:01:21;;;;;;;2.17;1.80;;;;;;;15.47;89.39;101532.63;5098346;22;20048;-60
2023/09/06 08:03:47;;;;;;;11.10;1.67;;;;;;;15.55;89.01;101533.41;5125988;28;20538;-60
2023/09/06 08:06:13;;;;;;;2.05;1.85;;;;;;;15.63;88.63;101537.69;5126625;28;20016;-59
2023/09/06 08:08:39;;;;;;;1.63;1.52;;;;;;;15.52;88.55;101522.09;5127185;28;20080;-59
2023/09/06 08:11:05;;;;;;;1.67;1.50;;;;;;;15.49;88.91;101517.78;5127584;28;20023;-61
2023/09/06 08:13:31;;;;;;;2.63;1.73;;;;;;;15.60;88.29;101520.28;5127745;28;20023;-59
2023/09/06 08:15:56;;;;;;;7.10;1.70;;;;;;;15.68;87.66;101536.75;5127608;28;20110;-60
2023/09/06 08:18:21;;;;;;;5.63;2.35;;;;;;;15.58;87.36;101543.84;5127602;28;20046;-60
2023/09/06 08:20:47;;;;;;;2.47;1.73;;;;;;;15.53;88.24;101550.88;5127299;28;20024;-60
2023/09/06 08:23:12;;;;;;;2.55;1.90;;;;;;;15.59;88.76;101545.56;5127275;28;20448;-59
2023/09/06 08:25:37;;;;;;;2.95;2.17;;;;;;;15.70;88.99;101539.38;5127505;28;20035;-64
2023/09/06 08:28:03;;;;;;;1.80;1.55;;;;;;;15.86;88.92;101547.91;5127286;28;20032;-59
2023/09/06 08:30:28;;;;;;;2.47;1.58;;;;;;;16.00;88.68;101545.13;5127453;28;20028;-60
2023/09/06 08:32:54;;;;;;;1.13;1.02;;;;;;;16.14;88.39;101546.69;5127304;28;20030;-59
2023/09/06 08:35:19;;;;;;;3.08;1.92;;;;;;;16.19;87.68;101545.75;5127105;28;20079;-60
2023/09/06 08:37:46;;;;;;;2.78;1.98;;;;;;;16.26;87.64;101550.91;5127148;28;20034;-59
2023/09/06 08:40:12;;;;;;;1.67;1.45;;;;;;;16.30;88.21;101550.84;5127274;28;20027;-60
2023/09/06 08:42:38;;;;;;;1.38;1.13;;;;;;;16.41;87.63;101541.94;5127264;28;20115;-60
2023/09/06 08:45:07;;;;;;;6.20;2.45;;;;;;;16.41;87.47;101550.69;5127018;28;20019;-60
2023/09/06 08:47:35;;;;;;;2.08;1.40;;;;;;;16.41;87.56;101561.16;5127123;28;20020;-61
2023/09/06 08:50:02;;;;;;;2.13;1.30;;;;;;;16.41;86.95;101560.28;5126777;28;20051;-60
2023/09/06 08:52:30;;;;;;;2.85;1.77;;;;;;;16.38;86.13;101562.94;5126744;28;20117;-59
2023/09/06 08:54:55;;;;;;;2.53;2.05;;;;;;;16.32;86.27;101556.94;5126506;28;20024;-59
2023/09/06 08:57:21;;;;;;;1.60;1.50;;;;;;;16.36;86.95;101552.50;5126826;28;20034;-60
2023/09/06 08:59:49;;;;;;;1.30;1.20;;;;;;;16.49;86.48;101566.28;5126752;28;20023;-61
2023/09/06 09:02:16;;;;;;;2.33;1.85;;;;;;;16.49;85.98;101563.66;5126526;28;20075;-60
2023/09/06 09:04:42;;;;;;;3.53;1.70;;;;;;;16.54;86.50;101569.72;5125965;28;20111;-60
2023/09/06 09:07:12;;;;;;;0.90;0.88;;;;;;;16.76;85.30;101571.16;5126381;28;20520;-58
2023/09/06 09:09:57;;;;;;;1.02;0.88;;;;;;;16.64;83.80;101582.69;5125241;28;20044;-60
2023/09/06 09:12:24;;;;;;;1.95;1.67;;;;;;;16.58;83.66;101576.63;5126489;28;20019;-59
2023/09/06 09:14:50;;;;;;;2.53;1.40;;;;;;;16.51;84.12;101571.50;5126519;27;20098;-61
2023/09/06 09:17:20;;;;;;;2.88;1.75;;;;;;;16.46;84.73;101582.06;5126392;28;20079;-61
2023/09/06 09:19:53;;;;;;;2.13;1.75;;;;;;;16.50;85.22;101575.03;5126595;28;20043;-60
2023/09/06 09:22:30;;;;;;;2.05;1.58;;;;;;;16.56;85.22;101570.56;5126324;28;20463;-59
2023/09/06 09:24:59;;;;;;;2.53;1.88;;;;;;;16.68;85.15;101577.38;5126059;28;20023;-60
2023/09/06 09:27:27;;;;;;;3.15;1.88;;;;;;;16.77;84.60;101578.13;5126224;28;20023;-60
2023/09/06 09:29:54;;;;;;;1.98;1.52;;;;;;;16.81;83.00;101570.19;5126139;28;20087;-60
2023/09/06 09:32:20;;;;;;;3.08;1.85;;;;;;;16.75;83.22;101572.91;5126211;28;20027;-60
2023/09/06 09:34:46;;;;;;;2.22;1.50;;;;;;;16.81;82.94;101577.16;5125890;28;20023;-61
2023/09/06 09:37:12;;;;;;;2.65;1.98;;;;;;;16.83;83.10;101573.66;5125930;28;20019;-60
2023/09/06 09:39:38;;;;;;;3.35;1.80;;;;;;;16.90;83.69;101578.81;5125701;28;20024;-61
2023/09/06 09:42:05;;;;;;;2.53;1.77;;;;;;;17.04;84.03;101584.69;5125779;28;20057;-59
2023/09/06 09:44:30;;;;;;;2.63;1.60;;;;;;;17.14;83.94;101582.78;5125878;27;20024;-61
2023/09/06 09:46:57;;;;;;;3.00;1.88;;;;;;;17.25;82.77;101577.38;5125860;28;20447;-60
2023/09/06 09:49:25;;;;;;;1.48;1.13;;;;;;;17.30;82.69;101585.16;5125696;28;20026;-60
2023/09/06 09:51:50;;;;;;;2.53;1.83;;;;;;;17.38;82.14;101590.28;5125600;28;20024;-59
2023/09/06 09:54:19;;;;;;;1.83;1.60;;;;;;;17.31;81.23;101584.25;5125354;27;20045;-59
2023/09/06 09:56:53;;;;;;;2.25;1.60;;;;;;;17.22;80.62;101596.63;5125612;28;20055;-60
2023/09/06 09:59:20;;;;;;;2.72;2.03;;;;;;;17.12;81.41;101599.47;5125734;28;20015;-59
2023/09/06 10:01:51;;;;;;;2.53;2.33;;;;;;;17.14;81.16;101603.78;5125185;28;20127;-61
2023/09/06 10:04:19;;;;;;;2.05;1.90;;;;;;;17.14;81.63;101603.78;5125433;28;20028;-60
2023/09/06 10:06:45;;;;;;;6.63;2.00;;;;;;;17.24;81.83;101607.13;5125222;28;20119;-59
2023/09/06 10:09:12;;;;;;;5.95;2.15;;;;;;;17.42;80.81;101615.56;5125240;28;20027;-60
2023/09/06 10:11:40;;;;;;;2.72;2.38;;;;;;;17.33;80.96;101608.72;5125223;28;20024;-60
2023/09/06 10:14:06;;;;;;;3.55;2.35;;;;;;;17.38;81.60;101616.50;5125273;28;20019;-60
2023/09/06 10:16:32;;;;;;;2.63;2.15;;;;;;;17.43;81.55;101619.91;5125177;28;20152;-60
2023/09/06 10:18:58;;;;;;;2.35;2.13;;;;;;;17.48;81.00;101612.81;5125230;28;20023;-60
2023/09/06 10:21:25;;;;;;;3.72;2.15;;;;;;;17.49;80.67;101614.56;5124749;27;20035;-60
2023/09/06 10:23:50;;;;;;;3.08;2.60;;;;;;;17.48;80.45;101604.09;5124980;28;20455;-60
2023/09/06 10:26:30;;;;;;;2.00;1.85;;;;;;;17.46;80.64;101610.22;5125245;28;20041;-60
2023/09/06 10:29:00;;;;;;;3.10;2.22;;;;;;;17.50;80.86;101613.66;5118113;22;20052;-64
2023/09/06 10:31:45;;;;;;;3.13;2.10;;;;;;;17.56;80.83;101616.19;5104278;28;20020;-65
2023/09/06 10:34:12;;;;;;;2.63;2.10;;;;;;;17.62;80.32;101614.34;5086073;28;20336;-64
2023/09/06 10:36:58;;;;;;;3.85;2.17;;;;;;;17.64;79.84;101607.28;5086232;28;20040;-65
2023/09/06 10:39:28;;;;;;;5.07;2.05;;;;;;;17.68;80.39;101616.84;5085475;28;20034;-65
2023/09/06 10:42:09;;;;;;;5.75;2.50;;;;;;;17.72;80.56;101610.63;5086032;28;20386;-65
2023/09/06 10:44:56;;;;;;;2.45;2.20;;;;;;;17.79;80.57;101607.00;5121301;22;20064;-61
2023/09/06 10:47:28;;;;;;;3.33;1.92;;;;;;;17.85;80.80;101611.25;5124807;28;20039;-58
2023/09/06 10:50:20;;;;;;;2.85;2.38;;;;;;;17.89;80.64;101618.16;5124818;28;20031;-60
2023/09/06 10:52:50;;;;;;;2.13;1.92;;;;;;;17.89;79.29;101612.06;5124845;28;20478;-60
2023/09/06 10:55:48;;;;;;;4.05;2.30;;;;;;;17.87;78.29;101619.09;5124507;28;20024;-59
2023/09/06 10:58:14;;;;;;;2.50;1.98;;;;;;;17.78;78.50;101615.75;5117819;28;20066;-60
2023/09/06 11:00:41;;;;;;;2.65;2.45;;;;;;;17.72;78.70;101610.63;5124831;28;20136;-59
2023/09/06 11:03:06;;;;;;;2.25;1.70;;;;;;;17.72;78.90;101621.13;5124800;28;20047;-59
2023/09/06 11:05:35;;;;;;;3.10;1.60;;;;;;;17.75;79.50;101621.06;5124800;28;20518;-59
2023/09/06 11:08:01;;;;;;;4.32;2.22;;;;;;;17.80;79.27;101628.88;5124238;28;20020;-59
2023/09/06 11:10:27;;;;;;;2.35;1.40;;;;;;;17.83;78.97;101624.44;5124341;28;20109;-60
2023/09/06 11:12:56;;;;;;;4.13;2.08;;;;;;;17.81;78.52;101626.19;5124507;28;20024;-59
2023/09/06 11:15:22;;;;;;;3.47;1.95;;;;;;;17.80;78.77;101637.63;5124435;28;20086;-59
2023/09/06 11:17:48;;;;;;;4.20;2.22;;;;;;;17.84;79.61;101628.78;5124515;28;20098;-59
2023/09/06 11:20:14;;;;;;;3.42;2.72;;;;;;;17.93;79.04;101634.75;5124259;28;20019;-60
2023/09/06 11:22:57;;;;;;;5.25;2.10;;;;;;;17.99;79.16;101637.25;5106042;28;20015;-60
2023/09/06 11:25:23;;;;;;;;;;;;;;;18.06;78.63;101638.00;5124774;28;20028;-60